Portada
METAR-TAF:

METAR-TAF

Aeroports :

Luxor, Egipte

latitud: 25-40N, longitud: 032-42E, altitud: 93 m

Observació

L'informe es va fer fa 58 minuts, a les 03:00 UTC
Vent calma
Temperatura 22°C
Humitat 35%
Pressió 1013 hPa
Visibilitat: 6000 m

METAR: HELX 210300Z 00000KT 6000 NSC 22/06 Q1013 NOSIG

Hora: 05:58 (03:58 UTC)

Pronòstic

L'informe es va fer fa 4 hores i 58 minuts, a les 23:00 UTC
Pronòstic vàlid del 21 a les 00 UTC al 22 a les 06 UTC
Vent 10 kt del Nord-Oest
Visibilitat 10 km o més
sense núvols per sota de 1500 mi sense presència de cumulonimbus.
Temporalment
l' 21 a les 04 UTC al 21 a les 07 UTC
Vent 3 kt amb direcció variable
Visibilitat: 4000 m
calitja

TAF: HELX 202300Z 2100/2206 31010KT CAVOK TEMPO 2104/2107 VRB03KT 4000 HZ NSC

Observacions i pronòstics meteorològics de més de 4000 aeroports (METAR i TAF).

Les estacions disponibles són els punts grocs i vermells al mapa.

Posi el ratolí al punt desitjat per veure el nom de l'estació.

Feu clic per veure les observacions i els pronòstics meteorològics.

Per canviar el mapa: feu clic els botons verds amb una creu de color negre per apropar; al botó verd amb un guió per allunyar la imatge; o en les fletxes verdes per a mapes adjacents.


METAR-TAF: